sensor_id;sensor_type;location;lat;lon;timestamp;P1;durP1;ratioP1;P2;durP2;ratioP2
20441;SDS011;10380;52.102;20.614;2023-05-07T00:02:06;6.20;;;5.20;;
20441;SDS011;10380;52.102;20.614;2023-05-07T00:04:33;5.60;;;4.00;;
20441;SDS011;10380;52.102;20.614;2023-05-07T00:07:05;6.70;;;4.33;;
20441;SDS011;10380;52.102;20.614;2023-05-07T00:09:32;9.30;;;3.90;;
20441;SDS011;10380;52.102;20.614;2023-05-07T00:11:59;6.37;;;4.27;;
20441;SDS011;10380;52.102;20.614;2023-05-07T00:14:26;5.77;;;3.93;;
20441;SDS011;10380;52.102;20.614;2023-05-07T00:16:53;6.53;;;4.50;;
20441;SDS011;10380;52.102;20.614;2023-05-07T00:19:20;7.17;;;4.63;;
20441;SDS011;10380;52.102;20.614;2023-05-07T00:21:47;4.83;;;4.03;;
20441;SDS011;10380;52.102;20.614;2023-05-07T00:24:14;4.83;;;3.77;;
20441;SDS011;10380;52.102;20.614;2023-05-07T00:26:41;6.20;;;4.10;;
20441;SDS011;10380;52.102;20.614;2023-05-07T00:29:09;7.93;;;3.70;;
20441;SDS011;10380;52.102;20.614;2023-05-07T00:31:36;5.77;;;3.90;;
20441;SDS011;10380;52.102;20.614;2023-05-07T00:34:03;6.27;;;3.77;;
20441;SDS011;10380;52.102;20.614;2023-05-07T00:36:31;5.20;;;3.87;;
20441;SDS011;10380;52.102;20.614;2023-05-07T00:38:59;7.47;;;3.73;;
20441;SDS011;10380;52.102;20.614;2023-05-07T00:41:26;4.80;;;3.70;;
20441;SDS011;10380;52.102;20.614;2023-05-07T00:43:53;4.80;;;4.00;;
20441;SDS011;10380;52.102;20.614;2023-05-07T00:46:20;7.27;;;3.93;;
20441;SDS011;10380;52.102;20.614;2023-05-07T00:48:48;7.73;;;4.10;;
20441;SDS011;10380;52.102;20.614;2023-05-07T00:51:18;7.83;;;3.93;;
20441;SDS011;10380;52.102;20.614;2023-05-07T00:53:45;5.80;;;3.77;;
20441;SDS011;10380;52.102;20.614;2023-05-07T00:56:12;7.70;;;3.97;;
20441;SDS011;10380;52.102;20.614;2023-05-07T00:58:40;6.27;;;4.27;;
20441;SDS011;10380;52.102;20.614;2023-05-07T01:01:07;6.57;;;4.30;;
20441;SDS011;10380;52.102;20.614;2023-05-07T01:03:34;5.33;;;4.00;;
20441;SDS011;10380;52.102;20.614;2023-05-07T01:06:02;5.10;;;3.63;;
20441;SDS011;10380;52.102;20.614;2023-05-07T01:08:31;5.47;;;3.73;;
20441;SDS011;10380;52.102;20.614;2023-05-07T01:11:00;6.13;;;3.87;;
20441;SDS011;10380;52.102;20.614;2023-05-07T01:13:30;4.77;;;3.73;;
20441;SDS011;10380;52.102;20.614;2023-05-07T01:15:57;5.80;;;3.43;;
20441;SDS011;10380;52.102;20.614;2023-05-07T01:18:24;6.93;;;3.67;;
20441;SDS011;10380;52.102;20.614;2023-05-07T01:20:52;4.83;;;4.13;;
20441;SDS011;10380;52.102;20.614;2023-05-07T01:23:21;6.53;;;4.53;;
20441;SDS011;10380;52.102;20.614;2023-05-07T01:25:52;6.63;;;4.50;;
20441;SDS011;10380;52.102;20.614;2023-05-07T01:28:19;8.37;;;4.53;;
20441;SDS011;10380;52.102;20.614;2023-05-07T01:30:49;6.30;;;4.37;;
20441;SDS011;10380;52.102;20.614;2023-05-07T01:33:20;5.33;;;4.53;;
20441;SDS011;10380;52.102;20.614;2023-05-07T01:35:48;5.07;;;4.33;;
20441;SDS011;10380;52.102;20.614;2023-05-07T01:38:18;6.83;;;3.67;;
20441;SDS011;10380;52.102;20.614;2023-05-07T01:40:47;5.97;;;3.90;;
20441;SDS011;10380;52.102;20.614;2023-05-07T01:43:14;5.30;;;4.10;;
20441;SDS011;10380;52.102;20.614;2023-05-07T01:45:41;6.63;;;3.87;;
20441;SDS011;10380;52.102;20.614;2023-05-07T01:48:11;7.03;;;4.20;;
20441;SDS011;10380;52.102;20.614;2023-05-07T01:50:39;6.67;;;4.43;;
20441;SDS011;10380;52.102;20.614;2023-05-07T01:53:07;6.17;;;3.70;;
20441;SDS011;10380;52.102;20.614;2023-05-07T01:55:34;4.10;;;3.70;;
20441;SDS011;10380;52.102;20.614;2023-05-07T01:58:03;4.93;;;3.70;;
20441;SDS011;10380;52.102;20.614;2023-05-07T02:00:30;6.27;;;3.80;;
20441;SDS011;10380;52.102;20.614;2023-05-07T02:02:58;7.77;;;4.37;;
20441;SDS011;10380;52.102;20.614;2023-05-07T02:05:25;4.13;;;3.37;;
20441;SDS011;10380;52.102;20.614;2023-05-07T02:07:52;4.30;;;3.70;;
20441;SDS011;10380;52.102;20.614;2023-05-07T02:10:20;4.50;;;3.83;;
20441;SDS011;10380;52.102;20.614;2023-05-07T02:12:47;6.27;;;3.53;;
20441;SDS011;10380;52.102;20.614;2023-05-07T02:15:14;4.40;;;3.50;;
20441;SDS011;10380;52.102;20.614;2023-05-07T02:20:40;7.03;;;3.60;;
20441;SDS011;10380;52.102;20.614;2023-05-07T02:23:07;4.23;;;3.37;;
20441;SDS011;10380;52.102;20.614;2023-05-07T02:25:34;6.47;;;3.90;;
20441;SDS011;10380;52.102;20.614;2023-05-07T02:28:01;4.70;;;3.80;;
20441;SDS011;10380;52.102;20.614;2023-05-07T02:30:28;3.97;;;3.50;;
20441;SDS011;10380;52.102;20.614;2023-05-07T02:32:55;5.47;;;3.30;;
20441;SDS011;10380;52.102;20.614;2023-05-07T02:35:21;4.43;;;3.60;;
20441;SDS011;10380;52.102;20.614;2023-05-07T02:37:50;5.67;;;3.90;;
20441;SDS011;10380;52.102;20.614;2023-05-07T02:40:17;6.70;;;3.20;;
20441;SDS011;10380;52.102;20.614;2023-05-07T02:42:45;5.60;;;3.63;;
20441;SDS011;10380;52.102;20.614;2023-05-07T02:45:12;5.00;;;3.30;;
20441;SDS011;10380;52.102;20.614;2023-05-07T02:47:39;4.43;;;3.40;;
20441;SDS011;10380;52.102;20.614;2023-05-07T02:50:07;4.53;;;3.37;;
20441;SDS011;10380;52.102;20.614;2023-05-07T02:52:34;4.63;;;3.57;;
20441;SDS011;10380;52.102;20.614;2023-05-07T02:55:01;4.10;;;3.40;;
20441;SDS011;10380;52.102;20.614;2023-05-07T02:57:28;9.53;;;3.83;;
20441;SDS011;10380;52.102;20.614;2023-05-07T02:59:57;5.40;;;3.70;;
20441;SDS011;10380;52.102;20.614;2023-05-07T03:02:24;4.40;;;3.37;;
20441;SDS011;10380;52.102;20.614;2023-05-07T03:04:51;12.03;;;3.70;;
20441;SDS011;10380;52.102;20.614;2023-05-07T03:07:19;6.20;;;3.60;;
20441;SDS011;10380;52.102;20.614;2023-05-07T03:09:46;3.47;;;3.17;;
20441;SDS011;10380;52.102;20.614;2023-05-07T03:12:12;3.67;;;3.03;;
20441;SDS011;10380;52.102;20.614;2023-05-07T03:14:39;3.50;;;3.20;;
20441;SDS011;10380;52.102;20.614;2023-05-07T03:17:06;6.77;;;3.53;;
20441;SDS011;10380;52.102;20.614;2023-05-07T03:19:33;4.50;;;3.33;;
20441;SDS011;10380;52.102;20.614;2023-05-07T03:22:00;3.77;;;3.30;;
20441;SDS011;10380;52.102;20.614;2023-05-07T03:24:27;4.70;;;3.80;;
20441;SDS011;10380;52.102;20.614;2023-05-07T03:26:55;5.40;;;3.53;;
20441;SDS011;10380;52.102;20.614;2023-05-07T03:29:23;4.07;;;2.97;;
20441;SDS011;10380;52.102;20.614;2023-05-07T03:31:50;3.40;;;3.10;;
20441;SDS011;10380;52.102;20.614;2023-05-07T03:34:17;4.63;;;3.37;;
20441;SDS011;10380;52.102;20.614;2023-05-07T03:36:48;3.60;;;3.13;;
20441;SDS011;10380;52.102;20.614;2023-05-07T03:39:15;3.50;;;3.20;;
20441;SDS011;10380;52.102;20.614;2023-05-07T03:41:43;4.13;;;3.20;;
20441;SDS011;10380;52.102;20.614;2023-05-07T03:44:09;3.57;;;2.97;;
20441;SDS011;10380;52.102;20.614;2023-05-07T03:46:36;4.07;;;3.27;;
20441;SDS011;10380;52.102;20.614;2023-05-07T03:49:04;4.27;;;3.10;;
20441;SDS011;10380;52.102;20.614;2023-05-07T03:51:32;4.20;;;3.80;;
20441;SDS011;10380;52.102;20.614;2023-05-07T03:53:59;4.00;;;3.33;;
20441;SDS011;10380;52.102;20.614;2023-05-07T03:56:25;3.70;;;3.13;;
20441;SDS011;10380;52.102;20.614;2023-05-07T03:58:54;3.90;;;3.00;;
20441;SDS011;10380;52.102;20.614;2023-05-07T04:01:21;4.43;;;3.37;;
20441;SDS011;10380;52.102;20.614;2023-05-07T04:03:48;3.80;;;3.30;;
20441;SDS011;10380;52.102;20.614;2023-05-07T04:06:16;5.17;;;2.83;;
20441;SDS011;10380;52.102;20.614;2023-05-07T04:08:45;3.87;;;3.30;;
20441;SDS011;10380;52.102;20.614;2023-05-07T04:11:12;3.73;;;3.33;;
20441;SDS011;10380;52.102;20.614;2023-05-07T04:13:39;4.93;;;3.37;;
20441;SDS011;10380;52.102;20.614;2023-05-07T04:16:06;3.80;;;3.30;;
20441;SDS011;10380;52.102;20.614;2023-05-07T04:18:33;2.70;;;2.40;;
20441;SDS011;10380;52.102;20.614;2023-05-07T04:20:59;3.57;;;3.00;;
20441;SDS011;10380;52.102;20.614;2023-05-07T04:23:27;6.40;;;2.97;;
20441;SDS011;10380;52.102;20.614;2023-05-07T04:25:54;3.77;;;3.40;;
20441;SDS011;10380;52.102;20.614;2023-05-07T04:28:21;4.27;;;3.70;;
20441;SDS011;10380;52.102;20.614;2023-05-07T04:30:48;6.03;;;3.37;;
20441;SDS011;10380;52.102;20.614;2023-05-07T04:33:15;5.63;;;3.33;;
20441;SDS011;10380;52.102;20.614;2023-05-07T04:35:45;5.57;;;3.60;;
20441;SDS011;10380;52.102;20.614;2023-05-07T04:38:12;3.87;;;3.30;;
20441;SDS011;10380;52.102;20.614;2023-05-07T04:40:39;4.03;;;3.20;;
20441;SDS011;10380;52.102;20.614;2023-05-07T04:43:06;4.73;;;2.87;;
20441;SDS011;10380;52.102;20.614;2023-05-07T04:45:35;3.93;;;3.13;;
20441;SDS011;10380;52.102;20.614;2023-05-07T04:48:03;3.20;;;2.70;;
20441;SDS011;10380;52.102;20.614;2023-05-07T04:50:30;4.23;;;2.97;;
20441;SDS011;10380;52.102;20.614;2023-05-07T04:52:57;3.37;;;2.80;;
20441;SDS011;10380;52.102;20.614;2023-05-07T04:55:24;3.63;;;3.33;;
20441;SDS011;10380;52.102;20.614;2023-05-07T04:57:51;4.10;;;2.73;;
20441;SDS011;10380;52.102;20.614;2023-05-07T05:00:19;6.13;;;3.10;;
20441;SDS011;10380;52.102;20.614;2023-05-07T05:02:48;3.67;;;2.70;;
20441;SDS011;10380;52.102;20.614;2023-05-07T05:05:15;5.80;;;3.13;;
20441;SDS011;10380;52.102;20.614;2023-05-07T05:07:42;3.93;;;2.87;;
20441;SDS011;10380;52.102;20.614;2023-05-07T05:10:09;4.07;;;2.87;;
20441;SDS011;10380;52.102;20.614;2023-05-07T05:12:36;5.33;;;3.07;;
20441;SDS011;10380;52.102;20.614;2023-05-07T05:15:04;4.10;;;3.00;;
20441;SDS011;10380;52.102;20.614;2023-05-07T05:17:32;3.50;;;2.90;;
20441;SDS011;10380;52.102;20.614;2023-05-07T05:20:01;3.80;;;3.47;;
20441;SDS011;10380;52.102;20.614;2023-05-07T05:22:28;4.77;;;3.57;;
20441;SDS011;10380;52.102;20.614;2023-05-07T05:24:57;5.97;;;3.47;;
20441;SDS011;10380;52.102;20.614;2023-05-07T05:27:24;4.70;;;3.00;;
20441;SDS011;10380;52.102;20.614;2023-05-07T05:29:51;3.87;;;2.67;;
20441;SDS011;10380;52.102;20.614;2023-05-07T05:32:18;4.63;;;3.53;;
20441;SDS011;10380;52.102;20.614;2023-05-07T05:34:45;3.43;;;2.83;;
20441;SDS011;10380;52.102;20.614;2023-05-07T05:37:11;6.97;;;4.20;;
20441;SDS011;10380;52.102;20.614;2023-05-07T05:39:38;5.30;;;3.50;;
20441;SDS011;10380;52.102;20.614;2023-05-07T05:42:05;5.33;;;3.93;;
20441;SDS011;10380;52.102;20.614;2023-05-07T05:44:32;4.30;;;3.20;;
20441;SDS011;10380;52.102;20.614;2023-05-07T05:46:59;5.43;;;3.17;;
20441;SDS011;10380;52.102;20.614;2023-05-07T05:49:26;3.70;;;2.83;;
20441;SDS011;10380;52.102;20.614;2023-05-07T05:51:53;3.67;;;2.97;;
20441;SDS011;10380;52.102;20.614;2023-05-07T05:54:20;3.67;;;2.63;;
20441;SDS011;10380;52.102;20.614;2023-05-07T05:56:47;3.60;;;2.73;;
20441;SDS011;10380;52.102;20.614;2023-05-07T05:59:14;3.47;;;3.00;;
20441;SDS011;10380;52.102;20.614;2023-05-07T06:01:42;3.93;;;2.67;;
20441;SDS011;10380;52.102;20.614;2023-05-07T06:04:09;4.03;;;3.00;;
20441;SDS011;10380;52.102;20.614;2023-05-07T06:06:36;4.07;;;2.67;;
20441;SDS011;10380;52.102;20.614;2023-05-07T06:09:03;4.57;;;3.53;;
20441;SDS011;10380;52.102;20.614;2023-05-07T06:11:31;3.47;;;2.73;;
20441;SDS011;10380;52.102;20.614;2023-05-07T06:13:58;3.80;;;2.83;;
20441;SDS011;10380;52.102;20.614;2023-05-07T06:16:25;5.70;;;3.30;;
20441;SDS011;10380;52.102;20.614;2023-05-07T06:18:52;4.37;;;3.30;;
20441;SDS011;10380;52.102;20.614;2023-05-07T06:21:19;5.83;;;3.43;;
20441;SDS011;10380;52.102;20.614;2023-05-07T06:23:46;4.40;;;3.13;;
20441;SDS011;10380;52.102;20.614;2023-05-07T06:26:13;2.93;;;2.60;;
20441;SDS011;10380;52.102;20.614;2023-05-07T06:28:40;4.90;;;2.77;;
20441;SDS011;10380;52.102;20.614;2023-05-07T06:31:13;3.67;;;2.70;;
20441;SDS011;10380;52.102;20.614;2023-05-07T06:33:47;3.43;;;2.43;;
20441;SDS011;10380;52.102;20.614;2023-05-07T06:36:15;3.43;;;2.77;;
20441;SDS011;10380;52.102;20.614;2023-05-07T06:38:42;3.63;;;3.10;;
20441;SDS011;10380;52.102;20.614;2023-05-07T06:41:09;3.53;;;2.90;;
20441;SDS011;10380;52.102;20.614;2023-05-07T06:43:36;3.03;;;2.30;;
20441;SDS011;10380;52.102;20.614;2023-05-07T06:46:03;3.30;;;2.33;;
20441;SDS011;10380;52.102;20.614;2023-05-07T06:48:29;2.13;;;1.90;;
20441;SDS011;10380;52.102;20.614;2023-05-07T06:50:57;2.40;;;2.20;;
20441;SDS011;10380;52.102;20.614;2023-05-07T06:53:24;3.33;;;2.37;;
20441;SDS011;10380;52.102;20.614;2023-05-07T06:55:52;2.73;;;2.53;;
20441;SDS011;10380;52.102;20.614;2023-05-07T06:58:19;2.43;;;2.23;;
20441;SDS011;10380;52.102;20.614;2023-05-07T07:00:45;2.47;;;2.13;;
20441;SDS011;10380;52.102;20.614;2023-05-07T07:03:12;2.80;;;2.17;;
20441;SDS011;10380;52.102;20.614;2023-05-07T07:05:42;3.03;;;2.07;;
20441;SDS011;10380;52.102;20.614;2023-05-07T07:08:09;2.93;;;2.63;;
20441;SDS011;10380;52.102;20.614;2023-05-07T07:10:36;3.50;;;1.93;;
20441;SDS011;10380;52.102;20.614;2023-05-07T07:13:03;3.43;;;1.90;;
20441;SDS011;10380;52.102;20.614;2023-05-07T07:15:30;2.90;;;1.60;;
20441;SDS011;10380;52.102;20.614;2023-05-07T07:17:57;3.10;;;1.73;;
20441;SDS011;10380;52.102;20.614;2023-05-07T07:20:24;2.27;;;2.00;;
20441;SDS011;10380;52.102;20.614;2023-05-07T07:22:51;2.27;;;1.70;;
20441;SDS011;10380;52.102;20.614;2023-05-07T07:25:18;2.57;;;2.10;;
20441;SDS011;10380;52.102;20.614;2023-05-07T07:27:45;3.90;;;3.10;;
20441;SDS011;10380;52.102;20.614;2023-05-07T07:30:12;2.90;;;2.07;;
20441;SDS011;10380;52.102;20.614;2023-05-07T07:32:40;2.00;;;1.73;;
20441;SDS011;10380;52.102;20.614;2023-05-07T07:35:07;3.97;;;1.73;;
20441;SDS011;10380;52.102;20.614;2023-05-07T07:37:35;2.13;;;1.80;;
20441;SDS011;10380;52.102;20.614;2023-05-07T07:40:03;3.13;;;2.20;;
20441;SDS011;10380;52.102;20.614;2023-05-07T07:42:30;2.27;;;1.93;;
20441;SDS011;10380;52.102;20.614;2023-05-07T07:44:56;3.33;;;2.50;;
20441;SDS011;10380;52.102;20.614;2023-05-07T07:47:23;2.73;;;2.40;;
20441;SDS011;10380;52.102;20.614;2023-05-07T07:49:50;3.20;;;2.27;;
20441;SDS011;10380;52.102;20.614;2023-05-07T07:52:17;3.80;;;2.43;;
20441;SDS011;10380;52.102;20.614;2023-05-07T07:54:45;3.97;;;2.47;;
20441;SDS011;10380;52.102;20.614;2023-05-07T07:57:12;3.10;;;2.50;;
20441;SDS011;10380;52.102;20.614;2023-05-07T07:59:38;3.73;;;2.10;;
20441;SDS011;10380;52.102;20.614;2023-05-07T08:02:06;3.13;;;2.40;;
20441;SDS011;10380;52.102;20.614;2023-05-07T08:04:32;2.70;;;2.50;;
20441;SDS011;10380;52.102;20.614;2023-05-07T08:06:59;3.93;;;2.20;;
20441;SDS011;10380;52.102;20.614;2023-05-07T08:09:26;3.10;;;2.23;;
20441;SDS011;10380;52.102;20.614;2023-05-07T08:11:53;2.53;;;2.20;;
20441;SDS011;10380;52.102;20.614;2023-05-07T08:14:20;3.63;;;2.17;;
20441;SDS011;10380;52.102;20.614;2023-05-07T08:16:47;3.87;;;2.70;;
20441;SDS011;10380;52.102;20.614;2023-05-07T08:19:14;3.03;;;2.47;;
20441;SDS011;10380;52.102;20.614;2023-05-07T08:21:41;4.07;;;2.20;;
20441;SDS011;10380;52.102;20.614;2023-05-07T08:24:09;3.90;;;2.00;;
20441;SDS011;10380;52.102;20.614;2023-05-07T08:26:36;3.23;;;2.27;;
20441;SDS011;10380;52.102;20.614;2023-05-07T08:29:05;4.33;;;1.90;;
20441;SDS011;10380;52.102;20.614;2023-05-07T08:31:32;3.73;;;2.17;;
20441;SDS011;10380;52.102;20.614;2023-05-07T08:33:59;3.83;;;2.27;;
20441;SDS011;10380;52.102;20.614;2023-05-07T08:36:26;2.93;;;2.40;;
20441;SDS011;10380;52.102;20.614;2023-05-07T08:38:54;2.83;;;2.50;;
20441;SDS011;10380;52.102;20.614;2023-05-07T08:41:21;8.43;;;3.93;;
20441;SDS011;10380;52.102;20.614;2023-05-07T08:43:49;3.70;;;2.83;;
20441;SDS011;10380;52.102;20.614;2023-05-07T08:46:21;2.50;;;2.30;;
20441;SDS011;10380;52.102;20.614;2023-05-07T08:48:48;2.83;;;2.30;;
20441;SDS011;10380;52.102;20.614;2023-05-07T08:51:17;3.10;;;2.33;;
20441;SDS011;10380;52.102;20.614;2023-05-07T08:53:45;2.67;;;2.13;;
20441;SDS011;10380;52.102;20.614;2023-05-07T08:56:15;2.43;;;2.03;;
20441;SDS011;10380;52.102;20.614;2023-05-07T08:58:43;5.30;;;1.93;;
20441;SDS011;10380;52.102;20.614;2023-05-07T09:01:14;3.97;;;2.40;;
20441;SDS011;10380;52.102;20.614;2023-05-07T09:03:44;2.73;;;1.90;;
20441;SDS011;10380;52.102;20.614;2023-05-07T09:06:11;3.27;;;2.00;;
20441;SDS011;10380;52.102;20.614;2023-05-07T09:08:38;2.50;;;1.90;;
20441;SDS011;10380;52.102;20.614;2023-05-07T09:11:05;3.53;;;2.43;;
20441;SDS011;10380;52.102;20.614;2023-05-07T09:13:31;2.47;;;2.00;;
20441;SDS011;10380;52.102;20.614;2023-05-07T09:15:58;2.40;;;2.20;;
20441;SDS011;10380;52.102;20.614;2023-05-07T09:18:40;2.73;;;2.10;;
20441;SDS011;10380;52.102;20.614;2023-05-07T09:21:16;2.27;;;1.93;;
20441;SDS011;10380;52.102;20.614;2023-05-07T09:23:44;3.97;;;2.03;;
20441;SDS011;10380;52.102;20.614;2023-05-07T09:26:10;2.67;;;2.00;;
20441;SDS011;10380;52.102;20.614;2023-05-07T09:28:41;2.67;;;2.10;;
20441;SDS011;10380;52.102;20.614;2023-05-07T09:31:09;4.27;;;2.20;;
20441;SDS011;10380;52.102;20.614;2023-05-07T09:33:37;2.43;;;2.07;;
20441;SDS011;10380;52.102;20.614;2023-05-07T09:36:05;1.97;;;1.83;;
20441;SDS011;10380;52.102;20.614;2023-05-07T09:38:33;3.47;;;2.17;;
20441;SDS011;10380;52.102;20.614;2023-05-07T09:41:04;4.47;;;2.10;;
20441;SDS011;10380;52.102;20.614;2023-05-07T09:43:36;2.10;;;1.70;;
20441;SDS011;10380;52.102;20.614;2023-05-07T09:46:14;4.17;;;2.70;;
20441;SDS011;10380;52.102;20.614;2023-05-07T09:48:42;3.67;;;2.20;;
20441;SDS011;10380;52.102;20.614;2023-05-07T09:51:28;2.53;;;2.13;;
20441;SDS011;10380;52.102;20.614;2023-05-07T09:53:56;3.50;;;2.37;;
20441;SDS011;10380;52.102;20.614;2023-05-07T09:56:23;2.87;;;2.30;;
20441;SDS011;10380;52.102;20.614;2023-05-07T09:58:52;4.13;;;2.15;;
20441;SDS011;10380;52.102;20.614;2023-05-07T10:01:20;3.10;;;2.10;;
20441;SDS011;10380;52.102;20.614;2023-05-07T10:03:48;2.22;;;1.70;;
20441;SDS011;10380;52.102;20.614;2023-05-07T10:06:17;3.55;;;1.85;;
20441;SDS011;10380;52.102;20.614;2023-05-07T10:08:45;3.15;;;2.03;;
20441;SDS011;10380;52.102;20.614;2023-05-07T10:11:13;2.53;;;1.70;;
20441;SDS011;10380;52.102;20.614;2023-05-07T10:13:42;2.25;;;2.05;;
20441;SDS011;10380;52.102;20.614;2023-05-07T10:16:09;3.30;;;2.10;;
20441;SDS011;10380;52.102;20.614;2023-05-07T10:18:36;3.05;;;1.77;;
20441;SDS011;10380;52.102;20.614;2023-05-07T10:23:34;3.75;;;2.28;;
20441;SDS011;10380;52.102;20.614;2023-05-07T10:26:02;4.78;;;3.13;;
20441;SDS011;10380;52.102;20.614;2023-05-07T10:28:33;4.78;;;2.72;;
20441;SDS011;10380;52.102;20.614;2023-05-07T10:34:16;3.33;;;2.28;;
20441;SDS011;10380;52.102;20.614;2023-05-07T10:36:47;6.07;;;2.08;;
20441;SDS011;10380;52.102;20.614;2023-05-07T10:39:16;3.08;;;2.15;;
20441;SDS011;10380;52.102;20.614;2023-05-07T10:41:43;4.85;;;2.40;;
20441;SDS011;10380;52.102;20.614;2023-05-07T10:44:10;2.45;;;2.00;;
20441;SDS011;10380;52.102;20.614;2023-05-07T10:46:37;2.95;;;1.88;;
20441;SDS011;10380;52.102;20.614;2023-05-07T10:51:34;4.55;;;2.25;;
20441;SDS011;10380;52.102;20.614;2023-05-07T10:56:38;3.92;;;1.90;;
20441;SDS011;10380;52.102;20.614;2023-05-07T11:04:32;3.03;;;2.33;;
20441;SDS011;10380;52.102;20.614;2023-05-07T11:15:07;3.40;;;1.83;;
20441;SDS011;10380;52.102;20.614;2023-05-07T11:17:54;2.55;;;2.17;;
20441;SDS011;10380;52.102;20.614;2023-05-07T11:26:04;4.55;;;2.30;;
20441;SDS011;10380;52.102;20.614;2023-05-07T11:28:39;3.97;;;2.43;;
20441;SDS011;10380;52.102;20.614;2023-05-07T11:31:08;4.15;;;2.03;;
20441;SDS011;10380;52.102;20.614;2023-05-07T11:33:37;2.80;;;2.35;;
20441;SDS011;10380;52.102;20.614;2023-05-07T11:36:04;3.15;;;2.40;;
20441;SDS011;10380;52.102;20.614;2023-05-07T11:38:36;4.82;;;2.45;;
20441;SDS011;10380;52.102;20.614;2023-05-07T11:41:04;3.53;;;2.22;;
20441;SDS011;10380;52.102;20.614;2023-05-07T11:43:32;3.53;;;2.10;;
20441;SDS011;10380;52.102;20.614;2023-05-07T11:46:09;3.20;;;2.05;;
20441;SDS011;10380;52.102;20.614;2023-05-07T11:48:37;2.92;;;2.00;;
20441;SDS011;10380;52.102;20.614;2023-05-07T11:51:05;4.50;;;2.08;;
20441;SDS011;10380;52.102;20.614;2023-05-07T11:53:36;5.25;;;2.33;;
20441;SDS011;10380;52.102;20.614;2023-05-07T11:56:10;3.45;;;1.98;;
20441;SDS011;10380;52.102;20.614;2023-05-07T11:58:42;3.13;;;1.92;;
20441;SDS011;10380;52.102;20.614;2023-05-07T12:01:10;2.38;;;1.90;;
20441;SDS011;10380;52.102;20.614;2023-05-07T12:03:41;2.92;;;2.13;;
20441;SDS011;10380;52.102;20.614;2023-05-07T12:06:09;4.65;;;2.08;;
20441;SDS011;10380;52.102;20.614;2023-05-07T12:08:38;2.78;;;1.88;;
20441;SDS011;10380;52.102;20.614;2023-05-07T12:11:12;3.35;;;1.70;;
20441;SDS011;10380;52.102;20.614;2023-05-07T12:13:40;3.25;;;2.38;;
20441;SDS011;10380;52.102;20.614;2023-05-07T12:16:09;3.15;;;2.05;;
20441;SDS011;10380;52.102;20.614;2023-05-07T12:18:36;3.60;;;2.28;;
20441;SDS011;10380;52.102;20.614;2023-05-07T12:21:04;2.58;;;1.80;;
20441;SDS011;10380;52.102;20.614;2023-05-07T12:23:32;2.53;;;2.08;;
20441;SDS011;10380;52.102;20.614;2023-05-07T12:26:00;3.33;;;1.80;;
20441;SDS011;10380;52.102;20.614;2023-05-07T12:28:35;6.90;;;1.85;;
20441;SDS011;10380;52.102;20.614;2023-05-07T12:31:04;5.88;;;2.30;;
20441;SDS011;10380;52.102;20.614;2023-05-07T12:33:32;2.58;;;1.80;;
20441;SDS011;10380;52.102;20.614;2023-05-07T12:36:02;4.32;;;1.85;;
20441;SDS011;10380;52.102;20.614;2023-05-07T12:38:35;2.80;;;2.08;;
20441;SDS011;10380;52.102;20.614;2023-05-07T12:41:06;3.22;;;1.90;;
20441;SDS011;10380;52.102;20.614;2023-05-07T12:43:34;3.22;;;2.08;;
20441;SDS011;10380;52.102;20.614;2023-05-07T12:46:05;4.10;;;1.90;;
20441;SDS011;10380;52.102;20.614;2023-05-07T12:48:36;5.05;;;2.42;;
20441;SDS011;10380;52.102;20.614;2023-05-07T12:51:05;5.40;;;2.70;;
20441;SDS011;10380;52.102;20.614;2023-05-07T12:53:34;5.88;;;3.60;;
20441;SDS011;10380;52.102;20.614;2023-05-07T12:56:06;3.03;;;2.45;;
20441;SDS011;10380;52.102;20.614;2023-05-07T12:58:34;3.95;;;2.97;;
20441;SDS011;10380;52.102;20.614;2023-05-07T13:01:05;4.97;;;3.25;;
20441;SDS011;10380;52.102;20.614;2023-05-07T13:03:37;12.98;;;8.48;;
20441;SDS011;10380;52.102;20.614;2023-05-07T13:06:06;10.77;;;6.25;;
20441;SDS011;10380;52.102;20.614;2023-05-07T13:08:36;4.93;;;3.47;;
20441;SDS011;10380;52.102;20.614;2023-05-07T13:11:07;3.92;;;3.35;;
20441;SDS011;10380;52.102;20.614;2023-05-07T13:13:37;4.65;;;3.17;;
20441;SDS011;10380;52.102;20.614;2023-05-07T13:16:05;2.72;;;2.00;;
20441;SDS011;10380;52.102;20.614;2023-05-07T13:18:34;4.47;;;2.33;;
20441;SDS011;10380;52.102;20.614;2023-05-07T13:21:01;4.97;;;4.10;;
20441;SDS011;10380;52.102;20.614;2023-05-07T13:23:28;3.03;;;2.35;;
20441;SDS011;10380;52.102;20.614;2023-05-07T13:25:55;4.10;;;2.45;;
20441;SDS011;10380;52.102;20.614;2023-05-07T13:28:23;3.42;;;2.22;;
20441;SDS011;10380;52.102;20.614;2023-05-07T13:30:52;1.80;;;1.40;;
20441;SDS011;10380;52.102;20.614;2023-05-07T13:33:21;1.95;;;1.45;;
20441;SDS011;10380;52.102;20.614;2023-05-07T13:35:48;2.17;;;1.80;;
20441;SDS011;10380;52.102;20.614;2023-05-07T13:38:15;2.58;;;1.70;;
20441;SDS011;10380;52.102;20.614;2023-05-07T13:40:42;5.75;;;2.28;;
20441;SDS011;10380;52.102;20.614;2023-05-07T13:43:09;2.50;;;1.80;;
20441;SDS011;10380;52.102;20.614;2023-05-07T13:45:37;3.70;;;2.00;;
20441;SDS011;10380;52.102;20.614;2023-05-07T13:48:04;2.05;;;1.55;;
20441;SDS011;10380;52.102;20.614;2023-05-07T13:50:32;2.03;;;1.60;;
20441;SDS011;10380;52.102;20.614;2023-05-07T13:52:59;2.30;;;1.60;;
20441;SDS011;10380;52.102;20.614;2023-05-07T13:55:28;3.03;;;2.08;;
20441;SDS011;10380;52.102;20.614;2023-05-07T13:57:56;2.17;;;1.67;;
20441;SDS011;10380;52.102;20.614;2023-05-07T14:00:24;3.38;;;1.60;;
20441;SDS011;10380;52.102;20.614;2023-05-07T14:02:53;2.97;;;1.60;;
20441;SDS011;10380;52.102;20.614;2023-05-07T14:05:20;3.05;;;2.20;;
20441;SDS011;10380;52.102;20.614;2023-05-07T14:07:52;4.82;;;1.88;;
20441;SDS011;10380;52.102;20.614;2023-05-07T14:10:20;3.10;;;1.42;;
20441;SDS011;10380;52.102;20.614;2023-05-07T14:12:47;3.22;;;1.80;;
20441;SDS011;10380;52.102;20.614;2023-05-07T14:15:14;2.33;;;1.85;;
20441;SDS011;10380;52.102;20.614;2023-05-07T14:17:42;2.47;;;1.90;;
20441;SDS011;10380;52.102;20.614;2023-05-07T14:20:09;2.42;;;1.63;;
20441;SDS011;10380;52.102;20.614;2023-05-07T14:22:38;1.83;;;1.60;;
20441;SDS011;10380;52.102;20.614;2023-05-07T14:25:04;2.85;;;1.80;;
20441;SDS011;10380;52.102;20.614;2023-05-07T14:27:32;2.35;;;1.90;;
20441;SDS011;10380;52.102;20.614;2023-05-07T14:29:59;3.92;;;2.55;;
20441;SDS011;10380;52.102;20.614;2023-05-07T14:32:26;3.40;;;2.60;;
20441;SDS011;10380;52.102;20.614;2023-05-07T14:34:53;5.43;;;3.25;;
20441;SDS011;10380;52.102;20.614;2023-05-07T14:37:20;3.58;;;2.50;;
20441;SDS011;10380;52.102;20.614;2023-05-07T14:39:47;3.58;;;2.40;;
20441;SDS011;10380;52.102;20.614;2023-05-07T14:42:16;1.58;;;1.40;;
20441;SDS011;10380;52.102;20.614;2023-05-07T14:44:43;2.50;;;2.25;;
20441;SDS011;10380;52.102;20.614;2023-05-07T14:47:12;3.75;;;2.05;;
20441;SDS011;10380;52.102;20.614;2023-05-07T14:49:39;1.73;;;1.50;;
20441;SDS011;10380;52.102;20.614;2023-05-07T14:52:07;4.40;;;1.48;;
20441;SDS011;10380;52.102;20.614;2023-05-07T14:54:36;2.35;;;1.48;;
20441;SDS011;10380;52.102;20.614;2023-05-07T14:57:05;1.67;;;1.30;;
20441;SDS011;10380;52.102;20.614;2023-05-07T14:59:32;4.90;;;1.15;;
20441;SDS011;10380;52.102;20.614;2023-05-07T15:01:59;2.25;;;2.05;;
20441;SDS011;10380;52.102;20.614;2023-05-07T15:04:29;6.28;;;2.25;;
20441;SDS011;10380;52.102;20.614;2023-05-07T15:06:55;2.53;;;1.70;;
20441;SDS011;10380;52.102;20.614;2023-05-07T15:09:22;3.13;;;2.00;;
20441;SDS011;10380;52.102;20.614;2023-05-07T15:11:49;3.83;;;1.77;;